Time;durP1;ratioP1;P1;durP2;ratioP2;P2;SDS_P1;SDS_P2;PMS_P1;PMS_P2;Temp;Humidity;BMP_temperature;BMP_pressure;BME280_temperature;BME280_humidity;BME280_pressure;Samples;Min_cycle;Max_cycle;Signal;HPM_P1;HPM_P2
2022/01/25 00:09:14;;;;;;;;;;;0.00;99.90;;;;;;5086917;28;20069;-50
2022/01/25 00:25:45;;;;;;;;;;;0.00;99.90;;;;;;5089380;28;19949;-50
2022/01/25 00:28:21;;;;;;;;;;;0.00;99.90;;;;;;5082512;28;19946;-50
2022/01/25 00:31:01;;;;;;;;;;;0.10;99.90;;;;;;5093179;28;19932;-51
2022/01/25 00:33:29;;;;;;;;;;;0.20;99.90;;;;;;5083548;28;20360;-50
2022/01/25 00:35:56;;;;;;;;;;;0.10;99.90;;;;;;5089685;28;19935;-50
2022/01/25 00:38:23;;;;;;;;;;;0.10;99.90;;;;;;5085931;28;19939;-50
2022/01/25 00:40:51;;;;;;;;;;;0.20;99.90;;;;;;5084738;28;20365;-50
2022/01/25 00:43:19;;;;;;;;;;;0.20;99.90;;;;;;5084037;28;19924;-50
2022/01/25 00:45:45;;;;;;;;;;;0.20;99.90;;;;;;5093092;28;19924;-50
2022/01/25 00:48:18;;;;;;;;;;;0.30;99.90;;;;;;5079444;28;19932;-51
2022/01/25 00:50:47;;;;;;;;;;;0.30;99.90;;;;;;5092379;28;19928;-51
2022/01/25 00:55:58;;;;;;;;;;;0.20;99.90;;;;;;5092190;28;19953;-51
2022/01/25 00:58:24;;;;;;;;;;;0.20;99.90;;;;;;5093299;28;19928;-51
2022/01/25 01:00:51;;;;;;;;;;;0.20;99.90;;;;;;5086130;28;19977;-51
2022/01/25 01:03:18;;;;;;;;;;;0.10;99.90;;;;;;5080879;28;19985;-50
2022/01/25 01:05:47;;;;;;;;;;;0.20;99.90;;;;;;5086397;28;19931;-51
2022/01/25 01:08:14;;;;;;;;;;;0.10;99.90;;;;;;5087900;28;20287;-50
2022/01/25 01:10:40;;;;;;;;;;;0.00;99.90;;;;;;5085548;28;19924;-51
2022/01/25 01:16:08;;;;;;;;;;;0.00;99.90;;;;;;5084177;28;19969;-51
2022/01/25 01:29:49;;;;;;;;;;;0.00;99.90;;;;;;5091658;28;19927;-51
2022/01/25 01:32:39;;;;;;;;;;;0.00;99.90;;;;;;5088673;28;19924;-51
2022/01/25 01:35:31;;;;;;;;;;;0.00;99.90;;;;;;5080966;28;19924;-51
2022/01/25 01:38:15;;;;;;;;;;;0.00;99.90;;;;;;5092928;28;20011;-51
2022/01/25 01:40:59;;;;;;;;;;;-0.10;99.90;;;;;;5092597;28;21026;-51
2022/01/25 01:43:31;;;;;;;;;;;-0.10;99.90;;;;;;5090511;28;19931;-51
2022/01/25 01:46:16;;;;;;;;;;;-0.10;99.90;;;;;;5081101;28;19971;-51
2022/01/25 01:48:51;;;;;;;;;;;-0.20;99.90;;;;;;5090638;28;19977;-51
2022/01/25 01:51:26;;;;;;;;;;;-0.20;99.90;;;;;;5092463;28;19924;-52
2022/01/25 01:53:55;;;;;;;;;;;-0.20;99.90;;;;;;5077460;28;20007;-51
2022/01/25 01:56:22;;;;;;;;;;;-0.20;99.90;;;;;;5097000;28;19924;-51
2022/01/25 01:58:51;;;;;;;;;;;-0.20;99.90;;;;;;5087966;28;19969;-51
2022/01/25 02:01:18;;;;;;;;;;;-0.20;99.90;;;;;;5089620;28;19977;-51
2022/01/25 02:03:45;;;;;;;;;;;-0.20;99.90;;;;;;5095024;28;19928;-51
2022/01/25 02:06:12;;;;;;;;;;;-0.20;99.90;;;;;;5097404;28;19981;-51
2022/01/25 02:08:39;;;;;;;;;;;-0.20;99.90;;;;;;5095258;28;19975;-50
2022/01/25 02:11:07;;;;;;;;;;;-0.20;99.90;;;;;;5091485;28;19978;-51
2022/01/25 02:13:34;;;;;;;;;;;-0.20;99.90;;;;;;5084018;28;20329;-51
2022/01/25 02:16:05;;;;;;;;;;;-0.20;99.90;;;;;;5087685;28;19934;-50
2022/01/25 02:24:02;;;;;;;;;;;-0.10;99.90;;;;;;5089598;28;19969;-50
2022/01/25 02:26:29;;;;;;;;;;;-0.10;99.90;;;;;;5095935;28;19925;-51
2022/01/25 02:28:55;;;;;;;;;;;-0.20;99.90;;;;;;5085952;28;19925;-51
2022/01/25 02:31:22;;;;;;;;;;;-0.30;99.90;;;;;;5092128;28;20308;-51
2022/01/25 02:33:49;;;;;;;;;;;-0.20;99.90;;;;;;5099319;28;19924;-51
2022/01/25 02:36:24;;;;;;;;;;;-0.10;99.90;;;;;;5099870;28;19924;-51
2022/01/25 02:38:51;;;;;;;;;;;-0.20;99.90;;;;;;5110126;28;19924;-51
2022/01/25 02:41:18;;;;;;;;;;;-0.20;99.90;;;;;;5102338;28;19924;-51
2022/01/25 02:43:46;;;;;;;;;;;-0.30;99.90;;;;;;5087763;28;20004;-51
2022/01/25 02:48:59;;;;;;;;;;;-0.20;99.90;;;;;;5096432;28;20441;-51
2022/01/25 02:51:29;;;;;;;;;;;-0.20;99.90;;;;;;5095115;28;19924;-52
2022/01/25 02:53:56;;;;;;;;;;;-0.30;99.90;;;;;;5084830;28;19924;-51
2022/01/25 02:56:23;;;;;;;;;;;-0.30;99.90;;;;;;5089666;28;20335;-51
2022/01/25 02:58:50;;;;;;;;;;;-0.30;99.90;;;;;;5083591;28;19925;-52
2022/01/25 03:01:17;;;;;;;;;;;-0.20;99.90;;;;;;5089977;28;19958;-51
2022/01/25 03:03:44;;;;;;;;;;;0.00;99.90;;;;;;5094342;28;19935;-51
2022/01/25 03:06:14;;;;;;;;;;;0.00;99.90;;;;;;5090036;28;19986;-51
2022/01/25 03:08:42;;;;;;;;;;;-0.10;99.90;;;;;;5094563;28;20303;-51
2022/01/25 03:11:09;;;;;;;;;;;-0.10;99.90;;;;;;5085501;28;19933;-51
2022/01/25 03:13:48;;;;;;;;;;;-0.10;99.90;;;;;;5091304;28;19928;-51
2022/01/25 03:16:20;;;;;;;;;;;-0.10;99.90;;;;;;5088797;28;20444;-51
2022/01/25 03:18:48;;;;;;;;;;;-0.10;99.90;;;;;;5086944;28;19932;-51
2022/01/25 03:21:22;;;;;;;;;;;0.00;99.90;;;;;;5095430;28;20574;-51
2022/01/25 03:23:51;;;;;;;;;;;0.00;99.90;;;;;;5093777;28;19980;-51
2022/01/25 03:26:18;;;;;;;;;;;-0.10;99.90;;;;;;5087321;28;19924;-51
2022/01/25 03:28:45;;;;;;;;;;;-0.10;99.90;;;;;;5087092;28;19928;-51
2022/01/25 03:31:12;;;;;;;;;;;-0.20;99.90;;;;;;5089994;28;20383;-51
2022/01/25 03:33:39;;;;;;;;;;;-0.20;99.90;;;;;;5090685;28;20372;-51
2022/01/25 03:36:07;;;;;;;;;;;-0.30;99.90;;;;;;5087376;28;19925;-51
2022/01/25 03:38:35;;;;;;;;;;;-0.30;99.90;;;;;;5090895;28;19964;-51
2022/01/25 03:41:04;;;;;;;;;;;-0.20;99.90;;;;;;5093588;28;20014;-51
2022/01/25 03:43:31;;;;;;;;;;;0.00;99.90;;;;;;5084793;28;19924;-51
2022/01/25 03:46:02;;;;;;;;;;;0.00;99.90;;;;;;5094608;28;19977;-51
2022/01/25 03:51:13;;;;;;;;;;;-0.20;99.90;;;;;;5094486;28;19993;-50
2022/01/25 03:53:40;;;;;;;;;;;-0.30;99.90;;;;;;5092264;28;19977;-51
2022/01/25 03:56:08;;;;;;;;;;;-0.30;99.90;;;;;;5093089;28;19924;-51
2022/01/25 03:58:35;;;;;;;;;;;-0.30;99.90;;;;;;5094341;28;19931;-51
2022/01/25 04:01:01;;;;;;;;;;;-0.30;99.90;;;;;;5094610;28;19939;-51
2022/01/25 04:03:33;;;;;;;;;;;-0.40;99.90;;;;;;5093760;28;19924;-51
2022/01/25 04:06:01;;;;;;;;;;;-0.40;99.90;;;;;;5092354;28;20382;-51
2022/01/25 04:08:28;;;;;;;;;;;-0.40;99.90;;;;;;5094205;28;19977;-51
2022/01/25 04:10:55;;;;;;;;;;;-0.50;99.90;;;;;;5093317;28;19990;-51
2022/01/25 04:13:23;;;;;;;;;;;-0.50;99.90;;;;;;5093327;28;20439;-51
2022/01/25 04:15:53;;;;;;;;;;;-0.30;99.90;;;;;;5090572;28;19924;-51
2022/01/25 04:18:26;;;;;;;;;;;-0.30;99.90;;;;;;5087878;28;19925;-51
2022/01/25 04:21:03;;;;;;;;;;;-0.30;99.90;;;;;;5088551;28;19963;-51
2022/01/25 04:26:14;;;;;;;;;;;-0.30;99.90;;;;;;5091176;28;20313;-51
2022/01/25 04:28:42;;;;;;;;;;;-0.30;99.90;;;;;;5088243;28;19969;-51
2022/01/25 04:31:08;;;;;;;;;;;-0.20;99.90;;;;;;5089095;28;19924;-51
2022/01/25 04:33:56;;;;;;;;;;;-0.20;99.90;;;;;;5087517;28;20343;-51
2022/01/25 04:36:52;;;;;;;;;;;-0.30;99.90;;;;;;5087874;28;19924;-50
2022/01/25 04:50:46;;;;;;;;;;;-0.30;99.90;;;;;;5091489;28;20397;-51
2022/01/25 04:53:19;;;;;;;;;;;-0.40;99.90;;;;;;5087135;28;19908;-51
2022/01/25 04:55:52;;;;;;;;;;;-0.50;99.90;;;;;;5085787;28;19939;-50
2022/01/25 04:58:25;;;;;;;;;;;-0.30;99.90;;;;;;5092880;28;19924;-51
2022/01/25 05:00:53;;;;;;;;;;;-0.50;99.90;;;;;;5086828;28;20010;-51
2022/01/25 05:03:25;;;;;;;;;;;-0.50;99.90;;;;;;5086128;28;19924;-51
2022/01/25 05:05:58;;;;;;;;;;;-0.50;99.90;;;;;;5087868;28;19950;-51
2022/01/25 05:08:33;;;;;;;;;;;-0.50;99.90;;;;;;5087327;28;19932;-50
2022/01/25 05:11:06;;;;;;;;;;;-0.40;99.90;;;;;;5084761;28;19982;-51
2022/01/25 05:13:42;;;;;;;;;;;-0.40;99.90;;;;;;5083808;28;19985;-51
2022/01/25 05:16:26;;;;;;;;;;;-0.50;99.90;;;;;;5086221;28;20455;-52
2022/01/25 05:19:02;;;;;;;;;;;-0.50;99.90;;;;;;5085973;28;19928;-51
2022/01/25 05:24:13;;;;;;;;;;;-0.50;99.90;;;;;;5105925;22;20508;-50
2022/01/25 05:26:40;;;;;;;;;;;-0.50;99.90;;;;;;5065012;28;19924;-48
2022/01/25 05:29:07;;;;;;;;;;;-0.50;99.90;;;;;;5080885;28;20447;-50
2022/01/25 05:31:36;;;;;;;;;;;-0.60;99.90;;;;;;5072985;28;20605;-49
2022/01/25 05:34:03;;;;;;;;;;;-0.50;99.90;;;;;;5070390;28;19979;-48
2022/01/25 05:36:29;;;;;;;;;;;-0.50;99.90;;;;;;5075081;28;20014;-50
2022/01/25 05:38:58;;;;;;;;;;;-0.50;99.90;;;;;;5065153;28;19924;-49
2022/01/25 05:41:29;;;;;;;;;;;-0.50;99.90;;;;;;5077397;28;19924;-50
2022/01/25 05:46:44;;;;;;;;;;;-0.50;99.90;;;;;;5081956;28;19965;-49
2022/01/25 05:49:11;;;;;;;;;;;-0.50;99.90;;;;;;5074519;28;19925;-49
2022/01/25 05:51:38;;;;;;;;;;;-0.50;99.90;;;;;;5078664;28;19928;-50
2022/01/25 05:54:05;;;;;;;;;;;-0.40;99.90;;;;;;5078922;28;19924;-48
2022/01/25 05:56:31;;;;;;;;;;;-0.40;99.90;;;;;;5075411;28;19924;-49
2022/01/25 05:58:58;;;;;;;;;;;-0.50;99.90;;;;;;5072496;28;20437;-50
2022/01/25 06:01:25;;;;;;;;;;;-0.50;99.90;;;;;;5079712;28;19977;-50
2022/01/25 06:03:54;;;;;;;;;;;-0.50;99.90;;;;;;5079412;28;20389;-49
2022/01/25 06:06:21;;;;;;;;;;;-0.50;99.90;;;;;;5081893;28;20014;-49
2022/01/25 06:08:48;;;;;;;;;;;-0.50;99.90;;;;;;5079619;28;19928;-49
2022/01/25 06:11:14;;;;;;;;;;;-0.50;99.90;;;;;;5077914;28;19924;-49
2022/01/25 06:13:42;;;;;;;;;;;-0.60;99.90;;;;;;5070738;28;19978;-48
2022/01/25 06:16:08;;;;;;;;;;;-0.60;99.90;;;;;;5063560;28;19936;-48
2022/01/25 06:18:35;;;;;;;;;;;-0.80;99.90;;;;;;5062718;28;19940;-48
2022/01/25 06:21:03;;;;;;;;;;;-0.80;99.90;;;;;;5063039;28;20487;-48
2022/01/25 06:23:30;;;;;;;;;;;-0.80;99.90;;;;;;5068669;28;19928;-49
2022/01/25 06:25:57;;;;;;;;;;;-0.80;99.90;;;;;;5087040;28;19927;-49
2022/01/25 06:28:24;;;;;;;;;;;-0.80;99.90;;;;;;5087654;28;20267;-49
2022/01/25 06:30:50;;;;;;;;;;;-0.80;99.90;;;;;;5070635;28;19993;-50
2022/01/25 06:33:17;;;;;;;;;;;-0.80;99.90;;;;;;5072696;28;20394;-49
2022/01/25 06:35:45;;;;;;;;;;;-0.80;99.90;;;;;;5073728;28;19985;-49
2022/01/25 06:38:15;;;;;;;;;;;-0.80;99.90;;;;;;5058884;28;19933;-49
2022/01/25 06:40:41;;;;;;;;;;;-0.70;99.90;;;;;;5063792;28;19985;-49
2022/01/25 06:43:08;;;;;;;;;;;-0.80;99.90;;;;;;5079202;28;19971;-49
2022/01/25 06:45:39;;;;;;;;;;;-0.80;99.90;;;;;;5065673;28;19925;-49
2022/01/25 06:48:06;;;;;;;;;;;-0.80;99.90;;;;;;5066003;28;20365;-49
2022/01/25 06:50:33;;;;;;;;;;;-0.90;99.90;;;;;;5066779;28;21040;-48
2022/01/25 06:53:00;;;;;;;;;;;-0.80;99.90;;;;;;5066171;28;19924;-49
2022/01/25 06:55:28;;;;;;;;;;;-0.90;99.90;;;;;;5065413;28;19970;-49
2022/01/25 06:57:55;;;;;;;;;;;-0.80;99.90;;;;;;5065870;28;20021;-49
2022/01/25 07:00:23;;;;;;;;;;;-1.00;99.90;;;;;;5067148;28;19925;-50
2022/01/25 07:02:50;;;;;;;;;;;-1.00;99.90;;;;;;5072706;28;20376;-48
2022/01/25 07:05:17;;;;;;;;;;;-1.00;99.90;;;;;;5073564;28;19933;-49
2022/01/25 07:07:44;;;;;;;;;;;-0.90;99.90;;;;;;5067439;28;19940;-48
2022/01/25 07:10:11;;;;;;;;;;;-1.00;99.90;;;;;;5066268;28;19924;-49
2022/01/25 07:12:39;;;;;;;;;;;-1.00;99.90;;;;;;5066619;28;20759;-48
2022/01/25 07:15:06;;;;;;;;;;;-1.00;99.90;;;;;;5066817;28;19925;-49
2022/01/25 07:17:33;;;;;;;;;;;-1.00;99.90;;;;;;5070547;28;20065;-48
2022/01/25 07:20:00;;;;;;;;;;;-1.00;99.90;;;;;;5066374;28;20007;-50
2022/01/25 07:22:27;;;;;;;;;;;-1.10;99.90;;;;;;5069875;28;20458;-49
2022/01/25 07:24:54;;;;;;;;;;;-1.10;99.90;;;;;;5063422;28;20025;-49
2022/01/25 07:27:20;;;;;;;;;;;-1.00;99.90;;;;;;5064000;28;19974;-49
2022/01/25 07:29:48;;;;;;;;;;;-1.00;99.90;;;;;;5065021;28;19932;-49
2022/01/25 07:32:15;;;;;;;;;;;-1.00;99.90;;;;;;5062533;28;19978;-48
2022/01/25 07:34:42;;;;;;;;;;;-1.00;99.90;;;;;;5067606;28;20046;-50
2022/01/25 07:37:09;;;;;;;;;;;-0.90;99.90;;;;;;5063904;28;19978;-49
2022/01/25 07:39:35;;;;;;;;;;;-0.90;99.90;;;;;;5067633;28;19924;-49
2022/01/25 07:42:02;;;;;;;;;;;-0.90;99.90;;;;;;5076203;28;19924;-49
2022/01/25 07:44:32;;;;;;;;;;;-0.90;99.90;;;;;;5068699;28;20414;-48
2022/01/25 07:47:01;;;;;;;;;;;-0.70;99.90;;;;;;5073454;28;19946;-49
2022/01/25 07:49:28;;;;;;;;;;;-0.60;99.90;;;;;;5072827;28;19932;-49
2022/01/25 07:51:55;;;;;;;;;;;-0.60;99.90;;;;;;5072908;28;20391;-50
2022/01/25 07:54:22;;;;;;;;;;;-0.60;99.90;;;;;;5070193;28;20015;-49
2022/01/25 07:56:49;;;;;;;;;;;-0.70;99.90;;;;;;5057604;28;19924;-49
2022/01/25 07:59:16;;;;;;;;;;;-0.70;99.90;;;;;;5073007;28;20294;-49
2022/01/25 08:01:43;;;;;;;;;;;-0.60;99.90;;;;;;5073340;28;19924;-48
2022/01/25 08:04:12;;;;;;;;;;;-0.60;99.90;;;;;;5072010;28;19932;-49
2022/01/25 08:06:38;;;;;;;;;;;-0.70;99.90;;;;;;5054305;28;19925;-49
2022/01/25 08:09:05;;;;;;;;;;;-0.70;99.90;;;;;;5054777;28;19925;-49
2022/01/25 08:11:32;;;;;;;;;;;-0.70;99.90;;;;;;5062867;28;19951;-49
2022/01/25 08:14:11;;;;;;;;;;;-0.70;99.90;;;;;;5069499;28;19924;-50
2022/01/25 08:16:38;;;;;;;;;;;-0.80;99.90;;;;;;5075685;28;19954;-50
2022/01/25 08:19:05;;;;;;;;;;;-0.70;99.90;;;;;;5073907;28;20336;-50
2022/01/25 08:21:33;;;;;;;;;;;-0.60;99.90;;;;;;5072804;28;19971;-49
2022/01/25 08:24:00;;;;;;;;;;;-0.60;99.90;;;;;;5072156;28;19925;-49
2022/01/25 08:26:26;;;;;;;;;;;-0.50;99.90;;;;;;5072507;28;19924;-49
2022/01/25 08:28:53;;;;;;;;;;;-0.40;99.90;;;;;;5072166;28;19925;-50
2022/01/25 08:31:21;;;;;;;;;;;-0.40;99.90;;;;;;5072717;28;19998;-48
2022/01/25 08:33:48;;;;;;;;;;;-0.30;99.90;;;;;;5058572;28;19986;-49
2022/01/25 08:36:14;;;;;;;;;;;-0.30;99.90;;;;;;5058223;28;19924;-49
2022/01/25 08:38:45;;;;;;;;;;;-0.30;99.90;;;;;;5071471;28;19924;-48
2022/01/25 08:41:12;;;;;;;;;;;-0.40;99.90;;;;;;5072727;28;19970;-49
2022/01/25 08:43:39;;;;;;;;;;;-0.30;99.90;;;;;;5076942;28;19982;-49
2022/01/25 08:46:05;;;;;;;;;;;-0.40;99.90;;;;;;5072278;28;19925;-50
2022/01/25 08:48:32;;;;;;;;;;;-0.30;99.90;;;;;;5071839;28;20455;-49
2022/01/25 08:51:01;;;;;;;;;;;-0.20;99.90;;;;;;5068101;28;19950;-49
2022/01/25 08:53:28;;;;;;;;;;;-0.10;99.90;;;;;;5070665;28;19924;-49
2022/01/25 08:55:56;;;;;;;;;;;0.10;99.90;;;;;;5068234;28;19928;-49
2022/01/25 08:58:23;;;;;;;;;;;0.20;99.90;;;;;;5071384;28;19925;-49
2022/01/25 09:00:50;;;;;;;;;;;0.20;99.90;;;;;;5087452;28;19969;-49
2022/01/25 09:03:16;;;;;;;;;;;0.20;99.90;;;;;;5063107;28;19997;-49
2022/01/25 09:05:43;;;;;;;;;;;0.30;99.90;;;;;;5070933;28;20275;-49
2022/01/25 09:08:15;;;;;;;;;;;0.30;99.90;;;;;;5062307;28;19924;-49
2022/01/25 09:10:42;;;;;;;;;;;0.30;99.90;;;;;;5061646;28;20333;-50
2022/01/25 09:13:10;;;;;;;;;;;0.40;99.90;;;;;;5071807;28;20070;-50
2022/01/25 09:15:37;;;;;;;;;;;0.50;99.90;;;;;;5071350;28;19925;-51
2022/01/25 09:18:04;;;;;;;;;;;0.60;99.90;;;;;;5068976;28;20023;-50
2022/01/25 09:20:31;;;;;;;;;;;0.60;99.90;;;;;;5056793;28;19943;-53
2022/01/25 09:22:57;;;;;;;;;;;0.70;99.90;;;;;;5051600;28;19986;-50
2022/01/25 09:25:24;;;;;;;;;;;0.70;99.90;;;;;;5064293;28;19970;-50
2022/01/25 09:27:51;;;;;;;;;;;0.80;99.90;;;;;;5071709;28;19933;-54
2022/01/25 09:30:19;;;;;;;;;;;1.10;99.90;;;;;;5071563;28;19932;-50
2022/01/25 09:32:46;;;;;;;;;;;1.10;99.90;;;;;;5071637;28;19987;-50
2022/01/25 09:35:13;;;;;;;;;;;1.00;99.90;;;;;;5071380;28;19971;-50
2022/01/25 09:37:41;;;;;;;;;;;0.80;99.90;;;;;;5071307;28;19978;-50
2022/01/25 09:40:09;;;;;;;;;;;0.70;99.90;;;;;;5071279;28;20279;-50
2022/01/25 09:42:36;;;;;;;;;;;0.70;99.90;;;;;;5070267;28;19932;-50
2022/01/25 09:45:03;;;;;;;;;;;0.70;99.90;;;;;;5066836;28;19990;-50
2022/01/25 09:47:31;;;;;;;;;;;0.70;99.90;;;;;;5058843;28;19924;-49
2022/01/25 09:49:58;;;;;;;;;;;0.80;99.90;;;;;;5057607;28;19924;-50
2022/01/25 09:52:27;;;;;;;;;;;0.70;99.90;;;;;;5068025;28;19936;-52
2022/01/25 09:54:55;;;;;;;;;;;0.60;99.90;;;;;;5072604;28;19924;-52
2022/01/25 09:57:23;;;;;;;;;;;0.90;99.90;;;;;;5066345;28;19958;-49
2022/01/25 09:59:50;;;;;;;;;;;1.20;99.90;;;;;;5060218;28;19932;-52
2022/01/25 10:02:31;;;;;;;;;;;1.20;99.90;;;;;;5070273;28;19928;-50
2022/01/25 10:05:15;;;;;;;;;;;1.00;99.90;;;;;;5070227;28;19947;-51
2022/01/25 10:07:41;;;;;;;;;;;1.00;99.90;;;;;;5069957;28;19928;-50
2022/01/25 10:10:09;;;;;;;;;;;1.20;99.90;;;;;;5070604;28;20447;-50
2022/01/25 10:12:35;;;;;;;;;;;1.20;99.90;;;;;;5070924;28;20293;-51
2022/01/25 10:15:09;;;;;;;;;;;1.50;99.90;;;;;;5070733;28;19970;-51
2022/01/25 10:17:37;;;;;;;;;;;1.80;99.90;;;;;;5073764;28;20370;-52
2022/01/25 10:20:05;;;;;;;;;;;2.10;99.90;;;;;;5074811;28;19928;-50
2022/01/25 10:22:41;;;;;;;;;;;2.10;99.90;;;;;;5072199;28;20371;-50
2022/01/25 10:25:08;;;;;;;;;;;1.90;99.90;;;;;;5082948;28;19977;-50
2022/01/25 10:28:03;;;;;;;;;;;1.70;99.90;;;;;;5094582;28;20015;-50
2022/01/25 10:30:36;;;;;;;;;;;1.90;99.90;;;;;;5094981;28;19924;-50
2022/01/25 10:33:03;;;;;;;;;;;2.10;99.90;;;;;;5094618;28;19928;-53
2022/01/25 10:35:31;;;;;;;;;;;1.70;99.90;;;;;;5094508;28;20008;-50
2022/01/25 10:37:58;;;;;;;;;;;1.90;99.90;;;;;;5079098;28;19929;-50
2022/01/25 10:40:37;;;;;;;;;;;2.10;99.90;;;;;;5063308;28;19935;-52
2022/01/25 10:43:05;;;;;;;;;;;2.10;99.90;;;;;;5074298;28;20019;-50
2022/01/25 10:45:32;;;;;;;;;;;1.90;99.90;;;;;;5074096;28;20038;-50
2022/01/25 10:47:59;;;;;;;;;;;1.80;99.90;;;;;;5073811;28;19978;-53
2022/01/25 10:50:27;;;;;;;;;;;2.00;99.90;;;;;;5074037;28;19982;-50
2022/01/25 10:53:06;;;;;;;;;;;2.00;99.90;;;;;;5073593;28;20007;-50
2022/01/25 10:55:36;;;;;;;;;;;2.00;99.90;;;;;;5073035;28;19931;-50
2022/01/25 10:58:03;;;;;;;;;;;2.10;99.90;;;;;;5073642;28;20023;-51
2022/01/25 11:00:32;;;;;;;;;;;2.00;99.90;;;;;;5073911;28;19979;-51
2022/01/25 11:02:58;;;;;;;;;;;1.90;99.90;;;;;;5073866;28;20019;-49
2022/01/25 11:05:26;;;;;;;;;;;2.10;99.90;;;;;;5073337;28;19928;-52
2022/01/25 11:07:52;;;;;;;;;;;2.20;99.90;;;;;;5073791;28;19928;-51
2022/01/25 11:10:21;;;;;;;;;;;2.50;99.90;;;;;;5073397;28;19958;-50
2022/01/25 11:13:01;;;;;;;;;;;2.60;99.90;;;;;;5073494;28;19932;-50
2022/01/25 11:15:28;;;;;;;;;;;2.60;99.90;;;;;;5073540;28;19972;-51
2022/01/25 11:17:54;;;;;;;;;;;2.40;99.90;;;;;;5073891;28;19928;-50
2022/01/25 11:20:21;;;;;;;;;;;2.50;99.90;;;;;;5073572;28;19970;-49
2022/01/25 11:22:49;;;;;;;;;;;2.60;99.90;;;;;;5073356;28;19924;-49
2022/01/25 11:25:18;;;;;;;;;;;2.50;99.90;;;;;;5120123;22;19985;-51
2022/01/25 11:27:47;;;;;;;;;;;2.40;99.90;;;;;;5116367;28;20408;-52
2022/01/25 11:30:14;;;;;;;;;;;2.30;99.90;;;;;;5117459;28;19923;-52
2022/01/25 11:32:42;;;;;;;;;;;2.30;99.90;;;;;;5112509;28;19935;-52
2022/01/25 11:35:11;;;;;;;;;;;2.20;99.90;;;;;;5098671;28;19984;-52
2022/01/25 11:37:39;;;;;;;;;;;2.10;99.90;;;;;;5094788;28;19924;-52
2022/01/25 11:40:21;;;;;;;;;;;2.40;99.90;;;;;;5094272;28;19928;-52
2022/01/25 11:42:50;;;;;;;;;;;2.40;99.90;;;;;;5094863;28;20014;-51
2022/01/25 11:45:19;;;;;;;;;;;2.40;99.90;;;;;;5095204;28;19932;-50
2022/01/25 11:47:48;;;;;;;;;;;2.60;99.90;;;;;;5092522;28;19928;-51
2022/01/25 11:50:15;;;;;;;;;;;2.80;99.90;;;;;;5094631;28;19946;-52
2022/01/25 11:52:47;;;;;;;;;;;2.80;99.90;;;;;;5075020;28;20353;-50
2022/01/25 11:55:21;;;;;;;;;;;2.90;99.90;;;;;;5074598;28;19928;-50
2022/01/25 11:57:52;;;;;;;;;;;3.00;99.90;;;;;;5074665;28;19928;-50
2022/01/25 12:00:20;;;;;;;;;;;3.10;99.90;;;;;;5074572;28;20298;-51
2022/01/25 12:02:49;;;;;;;;;;;3.10;99.90;;;;;;5074676;28;19932;-51
2022/01/25 12:05:18;;;;;;;;;;;3.00;99.90;;;;;;5080468;28;19935;-51
2022/01/25 12:08:03;;;;;;;;;;;3.10;99.90;;;;;;5094678;28;20283;-52
2022/01/25 12:10:31;;;;;;;;;;;3.00;99.90;;;;;;5084398;28;19924;-51
2022/01/25 12:13:12;;;;;;;;;;;3.00;99.90;;;;;;5095124;28;19924;-51
2022/01/25 12:15:39;;;;;;;;;;;2.80;99.90;;;;;;5094206;28;20412;-51
2022/01/25 12:18:08;;;;;;;;;;;3.00;99.90;;;;;;5094139;28;19925;-52
2022/01/25 12:20:47;;;;;;;;;;;3.10;99.90;;;;;;5094259;28;19935;-51
2022/01/25 12:23:18;;;;;;;;;;;3.10;99.90;;;;;;5094705;28;19947;-52
2022/01/25 12:25:48;;;;;;;;;;;3.40;99.90;;;;;;5089684;28;20405;-50
2022/01/25 12:28:23;;;;;;;;;;;3.50;99.90;;;;;;5086394;28;20421;-51
2022/01/25 12:30:50;;;;;;;;;;;3.30;99.90;;;;;;5086422;28;20404;-51
2022/01/25 12:33:21;;;;;;;;;;;3.10;99.90;;;;;;5074188;28;20380;-51
2022/01/25 12:35:49;;;;;;;;;;;3.20;99.90;;;;;;5078506;28;19924;-51
2022/01/25 12:38:21;;;;;;;;;;;3.30;99.90;;;;;;5094110;28;20382;-52
2022/01/25 12:40:53;;;;;;;;;;;2.70;99.90;;;;;;5093133;28;20394;-51
2022/01/25 12:43:24;;;;;;;;;;;3.00;99.90;;;;;;5073586;28;19986;-52
2022/01/25 12:45:55;;;;;;;;;;;3.30;99.90;;;;;;5073772;28;19925;-51
2022/01/25 12:48:24;;;;;;;;;;;3.40;99.90;;;;;;5073719;28;20349;-52
2022/01/25 12:50:52;;;;;;;;;;;3.40;99.90;;;;;;5073850;28;20290;-51
2022/01/25 12:53:20;;;;;;;;;;;3.60;99.90;;;;;;5073929;28;19932;-52
2022/01/25 12:55:48;;;;;;;;;;;3.60;99.90;;;;;;5080597;28;19933;-51
2022/01/25 12:58:15;;;;;;;;;;;3.70;99.90;;;;;;5085839;28;20282;-50
2022/01/25 13:00:43;;;;;;;;;;;3.70;99.90;;;;;;5090223;28;19985;-51
2022/01/25 13:03:16;;;;;;;;;;;3.40;99.90;;;;;;5094071;28;19984;-51
2022/01/25 13:05:44;;;;;;;;;;;3.30;99.90;;;;;;5093680;28;19946;-50
2022/01/25 13:08:21;;;;;;;;;;;3.50;99.90;;;;;;5093969;28;19928;-51
2022/01/25 13:10:49;;;;;;;;;;;3.70;99.90;;;;;;5093718;28;19977;-51
2022/01/25 13:13:23;;;;;;;;;;;3.60;99.90;;;;;;5092885;28;19974;-51
2022/01/25 13:15:56;;;;;;;;;;;3.50;99.90;;;;;;5086487;28;19970;-53
2022/01/25 13:18:26;;;;;;;;;;;3.60;99.90;;;;;;5073180;28;19931;-51
2022/01/25 13:21:01;;;;;;;;;;;3.50;99.90;;;;;;5074129;28;19940;-51
2022/01/25 13:23:27;;;;;;;;;;;3.40;99.90;;;;;;5074405;28;19931;-51
2022/01/25 13:25:57;;;;;;;;;;;3.10;99.90;;;;;;5074724;28;19931;-51
2022/01/25 13:28:36;;;;;;;;;;;3.20;99.90;;;;;;5084655;28;19950;-51
2022/01/25 13:31:07;;;;;;;;;;;3.40;99.90;;;;;;5083330;28;19967;-51
2022/01/25 13:33:35;;;;;;;;;;;3.40;99.90;;;;;;5073197;28;19932;-51
2022/01/25 13:36:02;;;;;;;;;;;3.50;99.90;;;;;;5073384;28;19924;-52
2022/01/25 13:38:30;;;;;;;;;;;3.40;99.90;;;;;;5075827;28;20448;-52
2022/01/25 13:41:07;;;;;;;;;;;3.20;99.90;;;;;;5093550;28;19938;-51
2022/01/25 13:46:18;;;;;;;;;;;3.30;99.90;;;;;;5058923;28;19920;-51
2022/01/25 13:48:47;;;;;;;;;;;3.10;99.90;;;;;;5093367;28;19924;-52
2022/01/25 13:51:15;;;;;;;;;;;3.00;99.90;;;;;;5095940;28;19969;-52
2022/01/25 13:53:42;;;;;;;;;;;2.90;99.90;;;;;;5098008;28;19924;-52
2022/01/25 13:56:10;;;;;;;;;;;2.60;99.90;;;;;;5098162;28;19924;-51
2022/01/25 13:58:40;;;;;;;;;;;2.60;99.90;;;;;;5096832;28;19924;-51
2022/01/25 14:01:08;;;;;;;;;;;2.70;99.90;;;;;;5095573;28;19932;-51
2022/01/25 14:03:36;;;;;;;;;;;2.70;99.90;;;;;;5094306;28;19928;-51
2022/01/25 14:06:19;;;;;;;;;;;2.70;99.90;;;;;;5085088;28;19924;-51
2022/01/25 14:08:47;;;;;;;;;;;2.60;99.90;;;;;;5076323;28;19928;-51
2022/01/25 14:11:25;;;;;;;;;;;2.30;99.90;;;;;;5077014;28;19928;-52
2022/01/25 14:24:54;;;;;;;;;;;1.90;99.90;;;;;;5056643;28;20314;-51
2022/01/25 14:27:23;;;;;;;;;;;1.70;99.90;;;;;;5056441;28;19928;-51
2022/01/25 14:29:51;;;;;;;;;;;1.60;99.90;;;;;;5056594;28;19925;-50
2022/01/25 14:32:27;;;;;;;;;;;1.70;99.90;;;;;;5036998;28;19972;-52
2022/01/25 14:35:00;;;;;;;;;;;1.60;99.90;;;;;;5040730;28;19925;-51
2022/01/25 14:37:28;;;;;;;;;;;1.60;99.90;;;;;;5056821;28;19986;-52
2022/01/25 14:40:02;;;;;;;;;;;1.30;99.90;;;;;;5055677;28;19932;-51
2022/01/25 14:42:29;;;;;;;;;;;1.40;99.90;;;;;;5056004;28;19970;-51
2022/01/25 14:45:00;;;;;;;;;;;1.30;99.90;;;;;;5055792;28;19924;-51
2022/01/25 14:47:35;;;;;;;;;;;1.40;99.90;;;;;;5056072;28;19925;-51
2022/01/25 14:50:02;;;;;;;;;;;1.30;99.90;;;;;;5055992;28;19925;-51
2022/01/25 14:52:30;;;;;;;;;;;1.20;99.90;;;;;;5055676;28;19929;-51
2022/01/25 14:54:57;;;;;;;;;;;1.30;99.90;;;;;;5055963;28;19978;-51
2022/01/25 14:57:31;;;;;;;;;;;1.30;99.90;;;;;;5056299;28;20394;-51
2022/01/25 15:00:00;;;;;;;;;;;1.30;99.90;;;;;;5052696;28;19932;-51
2022/01/25 15:02:27;;;;;;;;;;;1.00;99.90;;;;;;5054238;28;19924;-51
2022/01/25 15:04:55;;;;;;;;;;;1.00;99.90;;;;;;5055990;28;19925;-51
2022/01/25 15:07:22;;;;;;;;;;;1.00;99.90;;;;;;5040938;28;19965;-51
2022/01/25 15:09:57;;;;;;;;;;;0.90;99.90;;;;;;5051412;28;19978;-51
2022/01/25 15:12:26;;;;;;;;;;;0.90;99.90;;;;;;5055731;28;19925;-51
2022/01/25 15:14:56;;;;;;;;;;;0.90;99.90;;;;;;5054870;28;19925;-51
2022/01/25 15:17:23;;;;;;;;;;;0.80;99.90;;;;;;5055663;28;19937;-51
2022/01/25 15:19:50;;;;;;;;;;;0.80;99.90;;;;;;5055893;28;19978;-51
2022/01/25 15:22:19;;;;;;;;;;;0.80;99.90;;;;;;5056442;28;19935;-56
2022/01/25 15:24:46;;;;;;;;;;;0.60;99.90;;;;;;5055096;28;19931;-51
2022/01/25 15:27:15;;;;;;;;;;;0.50;99.90;;;;;;5055922;28;20376;-51
2022/01/25 15:29:42;;;;;;;;;;;0.40;99.90;;;;;;5055396;28;19931;-51
2022/01/25 15:32:09;;;;;;;;;;;0.30;99.90;;;;;;5055859;28;19932;-51
2022/01/25 15:34:39;;;;;;;;;;;0.40;99.90;;;;;;5055997;28;19925;-51
2022/01/25 15:37:05;;;;;;;;;;;0.30;99.90;;;;;;5055771;28;19929;-51
2022/01/25 15:39:32;;;;;;;;;;;0.30;99.90;;;;;;5054708;28;20337;-50
2022/01/25 15:42:00;;;;;;;;;;;0.20;99.90;;;;;;5054592;28;19924;-51
2022/01/25 15:44:36;;;;;;;;;;;0.10;99.90;;;;;;5055974;28;19925;-51
2022/01/25 15:47:05;;;;;;;;;;;0.10;99.90;;;;;;5064825;28;19924;-51
2022/01/25 15:49:32;;;;;;;;;;;0.10;99.90;;;;;;5057187;28;19925;-51
2022/01/25 15:51:59;;;;;;;;;;;0.00;99.90;;;;;;5055493;28;20398;-51
2022/01/25 15:54:27;;;;;;;;;;;0.00;99.90;;;;;;5055610;28;19929;-51
2022/01/25 15:56:54;;;;;;;;;;;-0.10;99.90;;;;;;5055155;28;20337;-51
2022/01/25 15:59:21;;;;;;;;;;;-0.20;99.90;;;;;;5054537;28;19924;-51